Fort Dauphin, Madagascar
Current Conditions -  °F | °C
As of 4:00 PM on Sunday 21 Dec 2014 (Local Time) from FMSD Reporting Station
Scattered Clouds Scattered Clouds  
Wind Chill: 84°   Ceiling: Unl
Heat Index: 92°   Visibility: 6mi
Dew Point: 75°   Wind: 21mph
Humidity: 74%   Direction: 60°ENE
Pressure: 29.77"   Gusts: NA
Location:  25.03°S, 46.99°E
Report Text: FMSD 211300Z 06018KT 9999 FEW020 SCT040 29/24 Q1008
Loading
Personal Weather Stations






























Interactive Weather Map New forecast layout! Learn more

10-Day Weather Forecast

Advertisements
Track Severe Weather on mobile